NCAR-RAP Real-Time Weather Data

Output produced by METARs form (17 December 2018  07:11 UTC)
found at http://weather.rap.ucar.edu/surface/
 
RJFM 170700Z 32010KT 9999 FEW040 14/02 Q1014
RJFM 170600Z 28018KT 9999 FEW030 14/03 Q1013
RJFM 170500Z 28018KT 9999 FEW030 15/03 Q1013
RJFM 170400Z 28018KT 9999 FEW030 16/03 Q1013
RJFM 170300Z 29021KT 9999 FEW030 16/03 Q1013
RJFM 170200Z 29014KT 9999 FEW030 15/04 Q1014
RJFM 170100Z 29011KT 270V330 9999 FEW030 14/05 Q1015
RJFM 170000Z 28013KT 9999 FEW030 13/06 Q1014
RJFM 162300Z 27014KT 9999 FEW020 11/07 Q1014
RJFM 162200Z 27014KT 9999 FEW020 10/07 Q1013
RJFM 162110Z 26010KT 9999 FEW030 10/08 Q1012 RMK 1CU030 A2991
RJFM 161212Z 29004KT 4000 -SHRA BR FEW005 SCT025 BKN045 11/10 Q1014 RMK 1ST005 3CU025 6CU045 A2995
RJFM 161200Z 32004KT 3500 SHRA BR FEW005 BKN025 BKN045 11/10 Q1014
RJFM 161113Z 30005KT 4000 -RA BR FEW005 SCT035 BKN045 11/10 Q1014 RMK 1ST005 3CU035 6SC045 A2997
RJFM 161100Z 30005KT 5000 -RA BR FEW005 BKN060 BKN080 11/10 Q1015
RJFM 161000Z 33003KT 7000 -RA FEW005 SCT060 BKN080 11/11 Q1015
RJFM 160900Z 31003KT 9000 -RA FEW005 BKN070 BKN120 11/11 Q1016
RJFM 160800Z 30004KT 260V320 9000 -RA FEW005 SCT020 BKN070 11/11 Q1016
RJFM 160700Z 31004KT 7000 -SHRA FEW005 BKN020 BKN030 11/11 Q1017
RJFM 160600Z 29005KT 7000 -SHRA FEW010 BKN025 BKN040 12/11 Q1018
RJFM 160500Z 29004KT 8000 -RA FEW010 BKN040 BKN060 11/11 Q1018
RJFM 160400Z 30005KT 9999 -RA FEW010 SCT050 BKN060 10/09 Q1019
RJFM 160300Z 29006KT 9999 -RA FEW015 SCT045 BKN060 10/09 Q1021
RJFM 160200Z 29007KT 9999 -RA FEW015 SCT045 BKN060 09/08 Q1022
RJFM 160100Z 29007KT 9999 -RA FEW030 SCT045 BKN060 08/06 Q1023
RJFM 160000Z 29006KT 9999 -RA FEW030 SCT060 BKN070 07/05 Q1023
RJFM 151200Z 28007KT 9999 FEW040 06/04 Q1028
RJFM 151100Z 27007KT 9999 FEW040 06/04 Q1028
RJFM 151000Z 28008KT 9999 FEW040 08/04 Q1028
RJFM 150900Z 31005KT 9999 FEW040 10/03 Q1028
RJFM 150800Z 03005KT 9999 FEW035 12/03 Q1027
RJFM 150700Z 03004KT 350V080 9999 FEW035 13/03 Q1027
RJFM 150600Z 01005KT 340V040 9999 FEW035 13/02 Q1027
RJFM 150500Z 03007KT 360V060 9999 FEW040 13/02 Q1027
RJFM 150400Z 03007KT 9999 FEW040 12/01 Q1028
RJFM 150300Z 05008KT 9999 FEW040 13/02 Q1029
RJFM 150200Z 34004KT 300V020 9999 FEW030 11/00 Q1030
RJFM 150100Z 31006KT 270V340 9999 FEW030 09/M00 Q1031
RJFM 150000Z 29009KT 9999 FEW030 06/01 Q1031
RJFM 142300Z 28009KT 9999 FEW030 02/00 Q1030
RJFM 142200Z 29007KT 9999 FEW030 01/M01 Q1030
RJFM 142110Z 32008KT 9999 FEW030 02/M00 Q1029 RMK 1CU030 A3041